sensor_id;sensor_type;location;lat;lon;timestamp;P1;durP1;ratioP1;P2;durP2;ratioP2
4885;SDS011;2457;51.788;6.136;2022-11-15T00:02:16;13.13;;;7.37;;
4885;SDS011;2457;51.788;6.136;2022-11-15T00:04:43;16.50;;;7.03;;
4885;SDS011;2457;51.788;6.136;2022-11-15T00:07:11;12.70;;;6.23;;
4885;SDS011;2457;51.788;6.136;2022-11-15T00:09:38;14.40;;;6.77;;
4885;SDS011;2457;51.788;6.136;2022-11-15T00:12:05;13.70;;;6.70;;
4885;SDS011;2457;51.788;6.136;2022-11-15T00:14:32;16.73;;;6.50;;
4885;SDS011;2457;51.788;6.136;2022-11-15T00:17:00;11.90;;;6.23;;
4885;SDS011;2457;51.788;6.136;2022-11-15T00:19:27;11.57;;;6.10;;
4885;SDS011;2457;51.788;6.136;2022-11-15T00:21:54;13.83;;;7.20;;
4885;SDS011;2457;51.788;6.136;2022-11-15T00:24:21;11.60;;;6.10;;
4885;SDS011;2457;51.788;6.136;2022-11-15T00:26:49;11.70;;;6.10;;
4885;SDS011;2457;51.788;6.136;2022-11-15T00:29:16;11.57;;;5.90;;
4885;SDS011;2457;51.788;6.136;2022-11-15T00:31:43;10.20;;;6.13;;
4885;SDS011;2457;51.788;6.136;2022-11-15T00:34:10;11.17;;;6.63;;
4885;SDS011;2457;51.788;6.136;2022-11-15T00:36:38;12.63;;;5.60;;
4885;SDS011;2457;51.788;6.136;2022-11-15T00:39:05;11.07;;;5.93;;
4885;SDS011;2457;51.788;6.136;2022-11-15T00:41:32;10.33;;;5.43;;
4885;SDS011;2457;51.788;6.136;2022-11-15T00:43:59;11.13;;;5.40;;
4885;SDS011;2457;51.788;6.136;2022-11-15T00:46:27;10.53;;;6.23;;
4885;SDS011;2457;51.788;6.136;2022-11-15T00:48:54;11.90;;;5.40;;
4885;SDS011;2457;51.788;6.136;2022-11-15T00:51:21;11.83;;;6.60;;
4885;SDS011;2457;51.788;6.136;2022-11-15T00:53:48;11.83;;;6.17;;
4885;SDS011;2457;51.788;6.136;2022-11-15T00:56:16;14.07;;;7.10;;
4885;SDS011;2457;51.788;6.136;2022-11-15T00:58:43;10.13;;;5.93;;
4885;SDS011;2457;51.788;6.136;2022-11-15T01:01:12;12.87;;;6.67;;
4885;SDS011;2457;51.788;6.136;2022-11-15T01:03:39;11.73;;;6.73;;
4885;SDS011;2457;51.788;6.136;2022-11-15T01:06:07;11.50;;;5.83;;
4885;SDS011;2457;51.788;6.136;2022-11-15T01:08:34;11.73;;;6.57;;
4885;SDS011;2457;51.788;6.136;2022-11-15T01:11:02;9.07;;;5.20;;
4885;SDS011;2457;51.788;6.136;2022-11-15T01:13:31;12.03;;;7.00;;
4885;SDS011;2457;51.788;6.136;2022-11-15T01:15:59;12.43;;;6.10;;
4885;SDS011;2457;51.788;6.136;2022-11-15T01:18:27;14.37;;;6.27;;
4885;SDS011;2457;51.788;6.136;2022-11-15T01:20:54;12.03;;;6.00;;
4885;SDS011;2457;51.788;6.136;2022-11-15T01:23:22;12.47;;;6.73;;
4885;SDS011;2457;51.788;6.136;2022-11-15T01:25:49;14.63;;;6.43;;
4885;SDS011;2457;51.788;6.136;2022-11-15T01:28:16;11.10;;;6.30;;
4885;SDS011;2457;51.788;6.136;2022-11-15T01:30:43;11.70;;;6.20;;
4885;SDS011;2457;51.788;6.136;2022-11-15T01:33:11;13.20;;;7.13;;
4885;SDS011;2457;51.788;6.136;2022-11-15T01:35:38;11.67;;;6.00;;
4885;SDS011;2457;51.788;6.136;2022-11-15T01:38:06;10.10;;;6.17;;
4885;SDS011;2457;51.788;6.136;2022-11-15T01:40:34;11.97;;;6.10;;
4885;SDS011;2457;51.788;6.136;2022-11-15T01:43:18;14.13;;;6.43;;
4885;SDS011;2457;51.788;6.136;2022-11-15T01:45:30;13.13;;;6.40;;
4885;SDS011;2457;51.788;6.136;2022-11-15T01:47:57;12.33;;;6.67;;
4885;SDS011;2457;51.788;6.136;2022-11-15T01:50:28;9.70;;;6.10;;
4885;SDS011;2457;51.788;6.136;2022-11-15T01:52:56;11.13;;;6.33;;
4885;SDS011;2457;51.788;6.136;2022-11-15T01:55:24;13.50;;;6.57;;
4885;SDS011;2457;51.788;6.136;2022-11-15T01:57:57;13.90;;;7.07;;
4885;SDS011;2457;51.788;6.136;2022-11-15T02:00:21;11.60;;;6.30;;
4885;SDS011;2457;51.788;6.136;2022-11-15T02:02:48;11.80;;;6.70;;
4885;SDS011;2457;51.788;6.136;2022-11-15T02:05:15;13.43;;;6.93;;
4885;SDS011;2457;51.788;6.136;2022-11-15T02:07:43;10.40;;;6.60;;
4885;SDS011;2457;51.788;6.136;2022-11-15T02:10:11;12.47;;;6.90;;
4885;SDS011;2457;51.788;6.136;2022-11-15T02:12:39;11.70;;;7.03;;
4885;SDS011;2457;51.788;6.136;2022-11-15T02:15:07;12.80;;;7.13;;
4885;SDS011;2457;51.788;6.136;2022-11-15T02:20:08;12.80;;;6.93;;
4885;SDS011;2457;51.788;6.136;2022-11-15T02:28:10;15.53;;;6.70;;
4885;SDS011;2457;51.788;6.136;2022-11-15T02:30:47;12.10;;;6.53;;
4885;SDS011;2457;51.788;6.136;2022-11-15T02:33:20;13.50;;;6.50;;
4885;SDS011;2457;51.788;6.136;2022-11-15T02:35:56;11.43;;;5.80;;
4885;SDS011;2457;51.788;6.136;2022-11-15T02:41:07;10.03;;;5.20;;
4885;SDS011;2457;51.788;6.136;2022-11-15T02:43:38;12.80;;;5.97;;
4885;SDS011;2457;51.788;6.136;2022-11-15T02:46:37;9.90;;;5.93;;
4885;SDS011;2457;51.788;6.136;2022-11-15T02:49:27;9.13;;;5.80;;
4885;SDS011;2457;51.788;6.136;2022-11-15T02:51:54;10.40;;;5.60;;
4885;SDS011;2457;51.788;6.136;2022-11-15T02:54:23;13.13;;;5.30;;
4885;SDS011;2457;51.788;6.136;2022-11-15T02:56:51;9.33;;;5.40;;
4885;SDS011;2457;51.788;6.136;2022-11-15T02:59:24;11.17;;;5.90;;
4885;SDS011;2457;51.788;6.136;2022-11-15T03:02:01;10.87;;;5.60;;
4885;SDS011;2457;51.788;6.136;2022-11-15T03:07:02;9.47;;;5.93;;
4885;SDS011;2457;51.788;6.136;2022-11-15T03:12:07;11.10;;;5.80;;
4885;SDS011;2457;51.788;6.136;2022-11-15T03:14:34;9.73;;;5.40;;
4885;SDS011;2457;51.788;6.136;2022-11-15T03:19:47;11.50;;;6.43;;
4885;SDS011;2457;51.788;6.136;2022-11-15T03:22:21;11.80;;;5.87;;
4885;SDS011;2457;51.788;6.136;2022-11-15T03:24:45;11.10;;;5.80;;
4885;SDS011;2457;51.788;6.136;2022-11-15T03:27:15;12.40;;;6.27;;
4885;SDS011;2457;51.788;6.136;2022-11-15T03:29:43;13.00;;;5.60;;
4885;SDS011;2457;51.788;6.136;2022-11-15T03:32:12;9.43;;;5.77;;
4885;SDS011;2457;51.788;6.136;2022-11-15T03:34:46;11.47;;;6.07;;
4885;SDS011;2457;51.788;6.136;2022-11-15T03:37:08;10.70;;;5.23;;
4885;SDS011;2457;51.788;6.136;2022-11-15T03:39:36;9.47;;;5.57;;
4885;SDS011;2457;51.788;6.136;2022-11-15T03:42:07;12.20;;;5.43;;
4885;SDS011;2457;51.788;6.136;2022-11-15T03:44:44;10.20;;;5.53;;
4885;SDS011;2457;51.788;6.136;2022-11-15T03:47:20;10.20;;;5.83;;
4885;SDS011;2457;51.788;6.136;2022-11-15T03:49:44;11.70;;;5.63;;
4885;SDS011;2457;51.788;6.136;2022-11-15T03:52:11;13.13;;;5.10;;
4885;SDS011;2457;51.788;6.136;2022-11-15T03:54:49;10.30;;;4.97;;
4885;SDS011;2457;51.788;6.136;2022-11-15T03:57:16;9.73;;;5.00;;
4885;SDS011;2457;51.788;6.136;2022-11-15T03:59:44;10.77;;;6.00;;
4885;SDS011;2457;51.788;6.136;2022-11-15T04:02:11;10.00;;;5.13;;
4885;SDS011;2457;51.788;6.136;2022-11-15T04:04:38;11.80;;;4.90;;
4885;SDS011;2457;51.788;6.136;2022-11-15T04:07:05;11.27;;;5.23;;
4885;SDS011;2457;51.788;6.136;2022-11-15T04:09:33;9.43;;;5.53;;
4885;SDS011;2457;51.788;6.136;2022-11-15T04:12:02;9.77;;;5.03;;
4885;SDS011;2457;51.788;6.136;2022-11-15T04:14:29;11.53;;;5.97;;
4885;SDS011;2457;51.788;6.136;2022-11-15T04:16:56;10.43;;;5.47;;
4885;SDS011;2457;51.788;6.136;2022-11-15T04:19:23;9.80;;;5.17;;
4885;SDS011;2457;51.788;6.136;2022-11-15T04:22:09;13.43;;;5.60;;
4885;SDS011;2457;51.788;6.136;2022-11-15T04:24:54;9.30;;;5.33;;
4885;SDS011;2457;51.788;6.136;2022-11-15T04:27:21;10.63;;;5.40;;
4885;SDS011;2457;51.788;6.136;2022-11-15T04:29:48;12.30;;;5.40;;
4885;SDS011;2457;51.788;6.136;2022-11-15T04:32:16;10.63;;;5.03;;
4885;SDS011;2457;51.788;6.136;2022-11-15T04:34:43;16.53;;;5.77;;
4885;SDS011;2457;51.788;6.136;2022-11-15T04:37:11;13.67;;;6.07;;
4885;SDS011;2457;51.788;6.136;2022-11-15T04:39:41;11.50;;;5.30;;
4885;SDS011;2457;51.788;6.136;2022-11-15T04:42:08;10.33;;;5.30;;
4885;SDS011;2457;51.788;6.136;2022-11-15T04:44:36;14.20;;;5.80;;
4885;SDS011;2457;51.788;6.136;2022-11-15T04:47:03;10.13;;;4.83;;
4885;SDS011;2457;51.788;6.136;2022-11-15T04:49:30;10.60;;;5.50;;
4885;SDS011;2457;51.788;6.136;2022-11-15T04:51:58;11.50;;;5.60;;
4885;SDS011;2457;51.788;6.136;2022-11-15T04:54:25;16.20;;;5.90;;
4885;SDS011;2457;51.788;6.136;2022-11-15T04:56:52;19.47;;;5.60;;
4885;SDS011;2457;51.788;6.136;2022-11-15T04:59:19;11.33;;;4.97;;
4885;SDS011;2457;51.788;6.136;2022-11-15T05:01:47;9.90;;;5.00;;
4885;SDS011;2457;51.788;6.136;2022-11-15T05:04:14;11.80;;;5.50;;
4885;SDS011;2457;51.788;6.136;2022-11-15T05:06:48;16.73;;;5.37;;
4885;SDS011;2457;51.788;6.136;2022-11-15T05:09:16;11.30;;;5.93;;
4885;SDS011;2457;51.788;6.136;2022-11-15T05:11:43;9.07;;;5.60;;
4885;SDS011;2457;51.788;6.136;2022-11-15T05:14:11;12.73;;;6.60;;
4885;SDS011;2457;51.788;6.136;2022-11-15T05:16:38;12.47;;;5.40;;
4885;SDS011;2457;51.788;6.136;2022-11-15T05:19:05;10.40;;;5.53;;
4885;SDS011;2457;51.788;6.136;2022-11-15T05:21:33;11.20;;;5.67;;
4885;SDS011;2457;51.788;6.136;2022-11-15T05:24:00;10.83;;;6.10;;
4885;SDS011;2457;51.788;6.136;2022-11-15T05:26:28;10.57;;;5.27;;
4885;SDS011;2457;51.788;6.136;2022-11-15T05:28:55;14.80;;;5.27;;
4885;SDS011;2457;51.788;6.136;2022-11-15T05:31:23;11.07;;;5.07;;
4885;SDS011;2457;51.788;6.136;2022-11-15T05:33:50;9.33;;;5.10;;
4885;SDS011;2457;51.788;6.136;2022-11-15T05:36:34;13.93;;;5.30;;
4885;SDS011;2457;51.788;6.136;2022-11-15T05:39:03;13.47;;;6.17;;
4885;SDS011;2457;51.788;6.136;2022-11-15T05:41:40;10.77;;;5.57;;
4885;SDS011;2457;51.788;6.136;2022-11-15T05:44:09;12.80;;;5.77;;
4885;SDS011;2457;51.788;6.136;2022-11-15T05:46:37;10.27;;;5.50;;
4885;SDS011;2457;51.788;6.136;2022-11-15T05:49:06;9.17;;;4.63;;
4885;SDS011;2457;51.788;6.136;2022-11-15T05:51:34;9.73;;;4.57;;
4885;SDS011;2457;51.788;6.136;2022-11-15T05:54:01;9.17;;;5.43;;
4885;SDS011;2457;51.788;6.136;2022-11-15T05:56:29;10.97;;;5.00;;
4885;SDS011;2457;51.788;6.136;2022-11-15T05:58:57;9.43;;;4.50;;
4885;SDS011;2457;51.788;6.136;2022-11-15T06:01:24;10.60;;;5.20;;
4885;SDS011;2457;51.788;6.136;2022-11-15T06:03:52;7.53;;;4.50;;
4885;SDS011;2457;51.788;6.136;2022-11-15T06:06:19;8.73;;;4.73;;
4885;SDS011;2457;51.788;6.136;2022-11-15T06:08:47;8.00;;;5.00;;
4885;SDS011;2457;51.788;6.136;2022-11-15T06:11:14;7.93;;;4.13;;
4885;SDS011;2457;51.788;6.136;2022-11-15T06:13:41;8.03;;;4.80;;
4885;SDS011;2457;51.788;6.136;2022-11-15T06:16:09;9.37;;;5.17;;
4885;SDS011;2457;51.788;6.136;2022-11-15T06:18:36;8.13;;;4.87;;
4885;SDS011;2457;51.788;6.136;2022-11-15T06:21:03;9.70;;;5.67;;
4885;SDS011;2457;51.788;6.136;2022-11-15T06:23:31;12.87;;;5.80;;
4885;SDS011;2457;51.788;6.136;2022-11-15T06:26:01;10.45;;;5.05;;
4885;SDS011;2457;51.788;6.136;2022-11-15T06:28:28;14.50;;;5.50;;
4885;SDS011;2457;51.788;6.136;2022-11-15T06:30:56;9.87;;;5.17;;
4885;SDS011;2457;51.788;6.136;2022-11-15T06:33:23;7.30;;;4.53;;
4885;SDS011;2457;51.788;6.136;2022-11-15T06:35:50;10.70;;;5.43;;
4885;SDS011;2457;51.788;6.136;2022-11-15T06:38:18;17.67;;;5.43;;
4885;SDS011;2457;51.788;6.136;2022-11-15T06:40:45;10.00;;;5.27;;
4885;SDS011;2457;51.788;6.136;2022-11-15T06:43:12;9.73;;;4.63;;
4885;SDS011;2457;51.788;6.136;2022-11-15T06:45:40;15.33;;;5.77;;
4885;SDS011;2457;51.788;6.136;2022-11-15T06:48:08;10.37;;;5.40;;
4885;SDS011;2457;51.788;6.136;2022-11-15T06:50:35;7.33;;;4.30;;
4885;SDS011;2457;51.788;6.136;2022-11-15T06:53:05;9.93;;;5.00;;
4885;SDS011;2457;51.788;6.136;2022-11-15T06:55:32;8.33;;;5.07;;
4885;SDS011;2457;51.788;6.136;2022-11-15T06:58:00;8.73;;;5.03;;
4885;SDS011;2457;51.788;6.136;2022-11-15T07:00:27;11.30;;;6.00;;
4885;SDS011;2457;51.788;6.136;2022-11-15T07:02:54;10.53;;;5.80;;
4885;SDS011;2457;51.788;6.136;2022-11-15T07:05:21;9.47;;;5.20;;
4885;SDS011;2457;51.788;6.136;2022-11-15T07:07:52;9.80;;;5.50;;
4885;SDS011;2457;51.788;6.136;2022-11-15T07:10:20;9.17;;;5.50;;
4885;SDS011;2457;51.788;6.136;2022-11-15T07:12:48;9.30;;;5.17;;
4885;SDS011;2457;51.788;6.136;2022-11-15T07:15:15;7.93;;;4.77;;
4885;SDS011;2457;51.788;6.136;2022-11-15T07:17:43;9.40;;;5.40;;
4885;SDS011;2457;51.788;6.136;2022-11-15T07:20:10;10.23;;;5.80;;
4885;SDS011;2457;51.788;6.136;2022-11-15T07:22:44;11.20;;;5.37;;
4885;SDS011;2457;51.788;6.136;2022-11-15T07:25:08;11.40;;;5.57;;
4885;SDS011;2457;51.788;6.136;2022-11-15T07:27:35;9.97;;;5.60;;
4885;SDS011;2457;51.788;6.136;2022-11-15T07:30:03;10.83;;;5.67;;
4885;SDS011;2457;51.788;6.136;2022-11-15T07:32:30;11.70;;;5.73;;
4885;SDS011;2457;51.788;6.136;2022-11-15T07:34:58;8.40;;;4.50;;
4885;SDS011;2457;51.788;6.136;2022-11-15T07:37:25;8.87;;;4.60;;
4885;SDS011;2457;51.788;6.136;2022-11-15T07:39:52;8.10;;;4.20;;
4885;SDS011;2457;51.788;6.136;2022-11-15T07:42:19;13.03;;;3.97;;
4885;SDS011;2457;51.788;6.136;2022-11-15T07:45:05;7.40;;;3.40;;
4885;SDS011;2457;51.788;6.136;2022-11-15T07:47:32;7.67;;;3.87;;
4885;SDS011;2457;51.788;6.136;2022-11-15T07:50:00;5.90;;;3.13;;
4885;SDS011;2457;51.788;6.136;2022-11-15T07:52:27;6.97;;;2.93;;
4885;SDS011;2457;51.788;6.136;2022-11-15T07:54:54;6.60;;;3.37;;
4885;SDS011;2457;51.788;6.136;2022-11-15T07:57:21;5.83;;;2.80;;
4885;SDS011;2457;51.788;6.136;2022-11-15T07:59:49;7.33;;;3.90;;
4885;SDS011;2457;51.788;6.136;2022-11-15T08:02:16;5.93;;;2.97;;
4885;SDS011;2457;51.788;6.136;2022-11-15T08:04:43;5.47;;;3.10;;
4885;SDS011;2457;51.788;6.136;2022-11-15T08:07:11;7.43;;;3.10;;
4885;SDS011;2457;51.788;6.136;2022-11-15T08:09:38;6.37;;;2.90;;
4885;SDS011;2457;51.788;6.136;2022-11-15T08:12:05;5.83;;;2.83;;
4885;SDS011;2457;51.788;6.136;2022-11-15T08:14:33;6.90;;;2.80;;
4885;SDS011;2457;51.788;6.136;2022-11-15T08:17:00;6.33;;;3.00;;
4885;SDS011;2457;51.788;6.136;2022-11-15T08:19:27;7.13;;;3.03;;
4885;SDS011;2457;51.788;6.136;2022-11-15T08:21:54;6.03;;;3.30;;
4885;SDS011;2457;51.788;6.136;2022-11-15T08:24:22;6.07;;;2.87;;
4885;SDS011;2457;51.788;6.136;2022-11-15T08:26:49;6.40;;;2.47;;
4885;SDS011;2457;51.788;6.136;2022-11-15T08:29:16;6.17;;;3.00;;
4885;SDS011;2457;51.788;6.136;2022-11-15T08:31:43;5.73;;;2.90;;
4885;SDS011;2457;51.788;6.136;2022-11-15T08:34:11;6.60;;;2.80;;
4885;SDS011;2457;51.788;6.136;2022-11-15T08:36:39;6.30;;;3.03;;
4885;SDS011;2457;51.788;6.136;2022-11-15T08:39:06;5.93;;;3.07;;
4885;SDS011;2457;51.788;6.136;2022-11-15T08:41:34;6.53;;;2.87;;
4885;SDS011;2457;51.788;6.136;2022-11-15T08:44:02;6.17;;;3.03;;
4885;SDS011;2457;51.788;6.136;2022-11-15T08:46:29;7.40;;;3.30;;
4885;SDS011;2457;51.788;6.136;2022-11-15T08:48:57;6.40;;;3.20;;
4885;SDS011;2457;51.788;6.136;2022-11-15T08:51:24;7.17;;;3.10;;
4885;SDS011;2457;51.788;6.136;2022-11-15T08:53:51;8.33;;;3.77;;
4885;SDS011;2457;51.788;6.136;2022-11-15T08:56:18;7.73;;;3.60;;
4885;SDS011;2457;51.788;6.136;2022-11-15T08:58:45;7.50;;;3.67;;
4885;SDS011;2457;51.788;6.136;2022-11-15T09:01:14;7.67;;;3.13;;
4885;SDS011;2457;51.788;6.136;2022-11-15T09:03:42;6.20;;;3.10;;
4885;SDS011;2457;51.788;6.136;2022-11-15T09:06:10;6.10;;;2.87;;
4885;SDS011;2457;51.788;6.136;2022-11-15T09:08:37;6.23;;;2.97;;
4885;SDS011;2457;51.788;6.136;2022-11-15T09:11:09;8.03;;;3.23;;
4885;SDS011;2457;51.788;6.136;2022-11-15T09:13:33;10.30;;;2.80;;
4885;SDS011;2457;51.788;6.136;2022-11-15T09:16:01;6.47;;;2.70;;
4885;SDS011;2457;51.788;6.136;2022-11-15T09:18:28;5.10;;;2.50;;
4885;SDS011;2457;51.788;6.136;2022-11-15T09:20:56;6.70;;;3.50;;
4885;SDS011;2457;51.788;6.136;2022-11-15T09:23:24;10.73;;;3.03;;
4885;SDS011;2457;51.788;6.136;2022-11-15T09:25:51;4.00;;;1.80;;
4885;SDS011;2457;51.788;6.136;2022-11-15T09:28:19;7.37;;;3.07;;
4885;SDS011;2457;51.788;6.136;2022-11-15T09:30:46;10.20;;;2.80;;
4885;SDS011;2457;51.788;6.136;2022-11-15T09:33:13;4.70;;;2.20;;
4885;SDS011;2457;51.788;6.136;2022-11-15T09:35:41;7.93;;;3.27;;
4885;SDS011;2457;51.788;6.136;2022-11-15T09:38:08;5.73;;;2.23;;
4885;SDS011;2457;51.788;6.136;2022-11-15T09:40:36;6.03;;;2.40;;
4885;SDS011;2457;51.788;6.136;2022-11-15T09:43:06;7.80;;;2.90;;
4885;SDS011;2457;51.788;6.136;2022-11-15T09:45:47;5.67;;;2.20;;
4885;SDS011;2457;51.788;6.136;2022-11-15T09:50:44;7.57;;;2.80;;
4885;SDS011;2457;51.788;6.136;2022-11-15T09:53:14;5.30;;;2.67;;
4885;SDS011;2457;51.788;6.136;2022-11-15T09:55:46;5.90;;;2.43;;
4885;SDS011;2457;51.788;6.136;2022-11-15T10:00:55;7.87;;;2.53;;
4885;SDS011;2457;51.788;6.136;2022-11-15T10:03:29;4.90;;;2.10;;
4885;SDS011;2457;51.788;6.136;2022-11-15T10:06:00;8.63;;;1.93;;
4885;SDS011;2457;51.788;6.136;2022-11-15T10:11:01;6.03;;;1.80;;
4885;SDS011;2457;51.788;6.136;2022-11-15T10:13:30;5.43;;;2.23;;
4885;SDS011;2457;51.788;6.136;2022-11-15T10:16:24;4.10;;;1.90;;
4885;SDS011;2457;51.788;6.136;2022-11-15T10:18:40;4.87;;;1.90;;
4885;SDS011;2457;51.788;6.136;2022-11-15T10:21:25;4.00;;;1.70;;
4885;SDS011;2457;51.788;6.136;2022-11-15T10:23:30;4.73;;;1.57;;
4885;SDS011;2457;51.788;6.136;2022-11-15T10:25:59;4.37;;;1.33;;
4885;SDS011;2457;51.788;6.136;2022-11-15T10:28:27;5.07;;;1.57;;
4885;SDS011;2457;51.788;6.136;2022-11-15T10:31:00;7.47;;;1.67;;
4885;SDS011;2457;51.788;6.136;2022-11-15T10:39:12;4.30;;;1.30;;
4885;SDS011;2457;51.788;6.136;2022-11-15T10:41:12;4.43;;;1.60;;
4885;SDS011;2457;51.788;6.136;2022-11-15T10:43:39;4.07;;;1.57;;
4885;SDS011;2457;51.788;6.136;2022-11-15T10:46:23;3.60;;;1.53;;
4885;SDS011;2457;51.788;6.136;2022-11-15T10:48:51;5.20;;;1.40;;
4885;SDS011;2457;51.788;6.136;2022-11-15T10:51:24;5.87;;;1.70;;
4885;SDS011;2457;51.788;6.136;2022-11-15T10:53:48;4.67;;;1.57;;
4885;SDS011;2457;51.788;6.136;2022-11-15T10:56:16;3.87;;;1.33;;
4885;SDS011;2457;51.788;6.136;2022-11-15T10:58:49;3.67;;;1.30;;
4885;SDS011;2457;51.788;6.136;2022-11-15T11:03:43;4.10;;;1.30;;
4885;SDS011;2457;51.788;6.136;2022-11-15T11:06:14;4.30;;;1.30;;
4885;SDS011;2457;51.788;6.136;2022-11-15T11:09:02;5.50;;;1.80;;
4885;SDS011;2457;51.788;6.136;2022-11-15T11:11:48;6.80;;;1.50;;
4885;SDS011;2457;51.788;6.136;2022-11-15T11:14:20;6.17;;;1.30;;
4885;SDS011;2457;51.788;6.136;2022-11-15T11:16:52;3.90;;;1.10;;
4885;SDS011;2457;51.788;6.136;2022-11-15T11:24:42;4.07;;;1.00;;
4885;SDS011;2457;51.788;6.136;2022-11-15T11:27:02;5.97;;;1.20;;
4885;SDS011;2457;51.788;6.136;2022-11-15T11:29:32;5.43;;;1.30;;
4885;SDS011;2457;51.788;6.136;2022-11-15T11:34:48;3.90;;;1.17;;
4885;SDS011;2457;51.788;6.136;2022-11-15T11:37:29;3.30;;;1.10;;
4885;SDS011;2457;51.788;6.136;2022-11-15T11:39:56;5.57;;;1.33;;
4885;SDS011;2457;51.788;6.136;2022-11-15T11:47:46;5.63;;;1.07;;
4885;SDS011;2457;51.788;6.136;2022-11-15T11:50:18;3.83;;;1.00;;
4885;SDS011;2457;51.788;6.136;2022-11-15T11:52:49;3.63;;;1.07;;
4885;SDS011;2457;51.788;6.136;2022-11-15T11:55:14;4.07;;;1.10;;
4885;SDS011;2457;51.788;6.136;2022-11-15T11:57:53;5.67;;;1.30;;
4885;SDS011;2457;51.788;6.136;2022-11-15T12:05:22;4.43;;;1.00;;
4885;SDS011;2457;51.788;6.136;2022-11-15T12:07:49;3.47;;;0.93;;
4885;SDS011;2457;51.788;6.136;2022-11-15T12:12:54;3.40;;;1.20;;
4885;SDS011;2457;51.788;6.136;2022-11-15T12:15:25;3.60;;;1.00;;
4885;SDS011;2457;51.788;6.136;2022-11-15T12:17:54;3.40;;;1.07;;
4885;SDS011;2457;51.788;6.136;2022-11-15T12:20:23;3.43;;;1.00;;
4885;SDS011;2457;51.788;6.136;2022-11-15T12:22:57;6.23;;;1.00;;
4885;SDS011;2457;51.788;6.136;2022-11-15T12:25:29;4.60;;;1.00;;
4885;SDS011;2457;51.788;6.136;2022-11-15T12:27:58;5.97;;;1.17;;
4885;SDS011;2457;51.788;6.136;2022-11-15T12:30:26;3.70;;;1.17;;
4885;SDS011;2457;51.788;6.136;2022-11-15T12:32:55;4.47;;;0.97;;
4885;SDS011;2457;51.788;6.136;2022-11-15T12:37:55;4.30;;;1.00;;
4885;SDS011;2457;51.788;6.136;2022-11-15T12:40:39;12.33;;;1.20;;
4885;SDS011;2457;51.788;6.136;2022-11-15T12:45:40;3.30;;;0.80;;
4885;SDS011;2457;51.788;6.136;2022-11-15T12:58:47;3.97;;;1.00;;
4885;SDS011;2457;51.788;6.136;2022-11-15T13:06:48;15.43;;;1.30;;
4885;SDS011;2457;51.788;6.136;2022-11-15T13:12:01;4.17;;;1.00;;
4885;SDS011;2457;51.788;6.136;2022-11-15T13:17:26;3.90;;;1.00;;
4885;SDS011;2457;51.788;6.136;2022-11-15T13:19:32;3.10;;;1.10;;
4885;SDS011;2457;51.788;6.136;2022-11-15T13:22:04;4.00;;;1.00;;
4885;SDS011;2457;51.788;6.136;2022-11-15T13:24:48;4.17;;;1.10;;
4885;SDS011;2457;51.788;6.136;2022-11-15T13:27:16;5.67;;;1.40;;
4885;SDS011;2457;51.788;6.136;2022-11-15T13:29:44;6.20;;;1.17;;
4885;SDS011;2457;51.788;6.136;2022-11-15T13:32:13;3.97;;;1.07;;
4885;SDS011;2457;51.788;6.136;2022-11-15T13:34:44;4.83;;;1.37;;
4885;SDS011;2457;51.788;6.136;2022-11-15T13:39:48;3.30;;;1.00;;
4885;SDS011;2457;51.788;6.136;2022-11-15T13:42:20;3.70;;;1.20;;
4885;SDS011;2457;51.788;6.136;2022-11-15T13:44:58;3.30;;;1.10;;
4885;SDS011;2457;51.788;6.136;2022-11-15T13:47:22;3.10;;;0.93;;
4885;SDS011;2457;51.788;6.136;2022-11-15T13:49:52;5.13;;;1.30;;
4885;SDS011;2457;51.788;6.136;2022-11-15T13:52:19;3.87;;;0.90;;
4885;SDS011;2457;51.788;6.136;2022-11-15T13:54:54;4.27;;;1.10;;
4885;SDS011;2457;51.788;6.136;2022-11-15T13:57:31;5.37;;;1.07;;
4885;SDS011;2457;51.788;6.136;2022-11-15T13:59:54;5.73;;;1.30;;
4885;SDS011;2457;51.788;6.136;2022-11-15T14:02:27;4.40;;;1.20;;
4885;SDS011;2457;51.788;6.136;2022-11-15T14:07:39;4.60;;;1.33;;
4885;SDS011;2457;51.788;6.136;2022-11-15T14:12:52;4.90;;;1.10;;
4885;SDS011;2457;51.788;6.136;2022-11-15T14:17:54;5.43;;;1.17;;
4885;SDS011;2457;51.788;6.136;2022-11-15T14:22:54;3.73;;;1.10;;
4885;SDS011;2457;51.788;6.136;2022-11-15T14:25:23;3.17;;;0.93;;
4885;SDS011;2457;51.788;6.136;2022-11-15T14:30:36;6.57;;;1.47;;
4885;SDS011;2457;51.788;6.136;2022-11-15T14:33:14;3.20;;;1.10;;
4885;SDS011;2457;51.788;6.136;2022-11-15T14:35:32;3.10;;;0.90;;
4885;SDS011;2457;51.788;6.136;2022-11-15T14:37:59;3.70;;;1.10;;
4885;SDS011;2457;51.788;6.136;2022-11-15T14:40:27;4.70;;;0.93;;
4885;SDS011;2457;51.788;6.136;2022-11-15T14:42:54;6.10;;;1.47;;
4885;SDS011;2457;51.788;6.136;2022-11-15T14:45:21;3.00;;;0.83;;
4885;SDS011;2457;51.788;6.136;2022-11-15T14:47:49;6.20;;;1.30;;
4885;SDS011;2457;51.788;6.136;2022-11-15T14:50:17;4.40;;;1.20;;
4885;SDS011;2457;51.788;6.136;2022-11-15T14:52:45;3.80;;;1.13;;
4885;SDS011;2457;51.788;6.136;2022-11-15T14:55:15;3.43;;;1.10;;
4885;SDS011;2457;51.788;6.136;2022-11-15T14:57:41;10.90;;;1.13;;
4885;SDS011;2457;51.788;6.136;2022-11-15T15:00:09;4.43;;;1.40;;
4885;SDS011;2457;51.788;6.136;2022-11-15T15:02:36;4.50;;;1.17;;
4885;SDS011;2457;51.788;6.136;2022-11-15T15:05:39;3.80;;;1.27;;
4885;SDS011;2457;51.788;6.136;2022-11-15T15:07:38;5.63;;;1.27;;
4885;SDS011;2457;51.788;6.136;2022-11-15T15:10:06;3.17;;;1.07;;
4885;SDS011;2457;51.788;6.136;2022-11-15T15:12:33;7.40;;;1.80;;
4885;SDS011;2457;51.788;6.136;2022-11-15T15:15:00;7.20;;;1.30;;
4885;SDS011;2457;51.788;6.136;2022-11-15T15:17:28;4.37;;;1.10;;
4885;SDS011;2457;51.788;6.136;2022-11-15T15:19:55;4.27;;;1.27;;
4885;SDS011;2457;51.788;6.136;2022-11-15T15:22:22;3.70;;;1.33;;
4885;SDS011;2457;51.788;6.136;2022-11-15T15:24:51;4.13;;;1.40;;
4885;SDS011;2457;51.788;6.136;2022-11-15T15:27:18;5.57;;;1.30;;
4885;SDS011;2457;51.788;6.136;2022-11-15T15:29:46;4.00;;;1.30;;
4885;SDS011;2457;51.788;6.136;2022-11-15T15:32:13;3.70;;;1.23;;
4885;SDS011;2457;51.788;6.136;2022-11-15T15:34:42;9.50;;;1.23;;
4885;SDS011;2457;51.788;6.136;2022-11-15T15:37:22;3.57;;;1.13;;
4885;SDS011;2457;51.788;6.136;2022-11-15T15:39:53;5.90;;;1.30;;
4885;SDS011;2457;51.788;6.136;2022-11-15T15:42:21;3.97;;;1.30;;
4885;SDS011;2457;51.788;6.136;2022-11-15T15:44:49;4.23;;;1.30;;
4885;SDS011;2457;51.788;6.136;2022-11-15T15:47:18;5.77;;;1.37;;
4885;SDS011;2457;51.788;6.136;2022-11-15T15:49:45;5.07;;;1.47;;
4885;SDS011;2457;51.788;6.136;2022-11-15T15:52:13;4.50;;;1.10;;
4885;SDS011;2457;51.788;6.136;2022-11-15T15:54:40;4.37;;;1.20;;
4885;SDS011;2457;51.788;6.136;2022-11-15T15:57:08;6.60;;;1.13;;
4885;SDS011;2457;51.788;6.136;2022-11-15T15:59:36;4.53;;;1.27;;
4885;SDS011;2457;51.788;6.136;2022-11-15T16:02:04;3.10;;;0.97;;
4885;SDS011;2457;51.788;6.136;2022-11-15T16:04:31;3.10;;;1.00;;
4885;SDS011;2457;51.788;6.136;2022-11-15T16:07:03;3.40;;;1.10;;
4885;SDS011;2457;51.788;6.136;2022-11-15T16:09:27;3.67;;;1.30;;
4885;SDS011;2457;51.788;6.136;2022-11-15T16:12:12;3.80;;;1.50;;
4885;SDS011;2457;51.788;6.136;2022-11-15T16:14:40;7.30;;;1.37;;
4885;SDS011;2457;51.788;6.136;2022-11-15T16:17:11;4.80;;;1.10;;
4885;SDS011;2457;51.788;6.136;2022-11-15T16:19:37;3.53;;;1.20;;
4885;SDS011;2457;51.788;6.136;2022-11-15T16:22:05;3.43;;;1.17;;
4885;SDS011;2457;51.788;6.136;2022-11-15T16:24:32;4.93;;;1.40;;
4885;SDS011;2457;51.788;6.136;2022-11-15T16:26:59;6.43;;;1.40;;
4885;SDS011;2457;51.788;6.136;2022-11-15T16:29:26;4.53;;;1.10;;
4885;SDS011;2457;51.788;6.136;2022-11-15T16:31:54;4.90;;;1.20;;
4885;SDS011;2457;51.788;6.136;2022-11-15T16:34:22;5.80;;;1.50;;
4885;SDS011;2457;51.788;6.136;2022-11-15T16:36:50;6.53;;;1.53;;
4885;SDS011;2457;51.788;6.136;2022-11-15T16:39:18;6.80;;;1.43;;
4885;SDS011;2457;51.788;6.136;2022-11-15T16:41:45;4.40;;;1.53;;
4885;SDS011;2457;51.788;6.136;2022-11-15T16:44:13;4.23;;;1.50;;
4885;SDS011;2457;51.788;6.136;2022-11-15T16:46:41;4.90;;;1.87;;
4885;SDS011;2457;51.788;6.136;2022-11-15T16:49:14;7.30;;;1.60;;
4885;SDS011;2457;51.788;6.136;2022-11-15T16:51:41;6.83;;;1.40;;
4885;SDS011;2457;51.788;6.136;2022-11-15T16:54:10;4.60;;;1.70;;
4885;SDS011;2457;51.788;6.136;2022-11-15T16:56:38;4.07;;;1.17;;
4885;SDS011;2457;51.788;6.136;2022-11-15T16:59:05;5.47;;;1.67;;